createdAt,value
2022-08-22T00:03:10.013Z,76.81
2022-08-22T00:08:20.708Z,79.42
2022-08-22T00:14:01.390Z,79.61
2022-08-22T00:19:25.018Z,78.89
2022-08-22T00:24:56.916Z,78.19
2022-08-22T00:30:29.041Z,79.44
2022-08-22T00:36:00.738Z,79.18
2022-08-22T00:41:32.768Z,79.18
2022-08-22T00:47:05.111Z,79.87
2022-08-22T00:52:37.446Z,78.77
2022-08-22T00:58:09.446Z,80.07
2022-08-22T01:03:41.111Z,78.86
2022-08-22T01:09:13.080Z,80.45
2022-08-22T01:14:44.814Z,81.52
2022-08-22T01:20:16.696Z,80.66
2022-08-22T01:25:48.462Z,80.77
2022-08-22T01:31:20.527Z,80.69
2022-08-22T01:36:52.552Z,81.38
2022-08-22T01:42:24.624Z,81.11
2022-08-22T01:47:56.518Z,80.40
2022-08-22T01:53:28.657Z,79.19
2022-08-22T01:59:01.644Z,79.90
2022-08-22T02:04:32.447Z,80.37
2022-08-22T02:10:04.347Z,82.01
2022-08-22T02:15:36.092Z,82.43
2022-08-22T02:21:08.094Z,82.44
2022-08-22T02:26:40.158Z,82.25
2022-08-22T02:32:12.191Z,83.46
2022-08-22T02:37:44.020Z,83.30
2022-08-22T02:43:15.982Z,84.33
2022-08-22T02:48:48.282Z,83.28
2022-08-22T02:54:20.081Z,83.92
2022-08-22T02:59:52.131Z,83.75
2022-08-22T03:05:23.855Z,82.90
2022-08-22T03:10:55.763Z,80.78
2022-08-22T03:16:27.338Z,84.30
2022-08-22T03:21:59.117Z,82.32
2022-08-22T03:27:33.238Z,78.76
2022-08-22T03:33:03.457Z,79.33
2022-08-22T03:38:35.847Z,80.34
2022-08-22T03:44:07.891Z,83.19
2022-08-22T03:49:39.849Z,82.94
2022-08-22T03:55:12.209Z,84.03
2022-08-22T04:00:44.413Z,85.12
2022-08-22T04:06:16.557Z,85.11
2022-08-22T04:11:48.844Z,85.56
2022-08-22T04:17:20.821Z,84.78
2022-08-22T04:22:52.917Z,85.15
2022-08-22T04:28:24.710Z,84.17
2022-08-22T04:33:56.509Z,85.74
2022-08-22T04:39:28.401Z,84.90
2022-08-22T04:45:00.861Z,82.97
2022-08-22T04:50:32.860Z,81.50
2022-08-22T05:01:36.817Z,83.42
2022-08-22T05:07:08.592Z,82.69
2022-08-22T05:12:40.959Z,84.66
2022-08-22T05:18:12.941Z,84.43
2022-08-22T05:23:44.524Z,83.26
2022-08-22T05:29:16.649Z,81.36
2022-08-22T05:40:21.349Z,76.94
2022-08-22T05:45:53.344Z,73.62
2022-08-22T05:51:25.462Z,71.14
2022-08-22T05:56:57.793Z,64.79
2022-08-22T06:02:29.952Z,65.68
2022-08-22T06:08:02.064Z,64.40
2022-08-22T06:13:34.129Z,63.43
2022-08-22T06:19:19.254Z,62.43
2022-08-22T06:24:38.501Z,58.70
2022-08-22T06:30:10.131Z,59.84
2022-08-22T06:35:41.965Z,58.20
2022-08-22T06:41:13.697Z,58.11
2022-08-22T06:46:47.944Z,57.68
2022-08-22T06:52:19.615Z,55.80
2022-08-22T06:57:51.516Z,54.99
2022-08-22T07:03:23.473Z,53.20
2022-08-22T07:08:55.568Z,53.76
2022-08-22T07:14:27.376Z,54.71
2022-08-22T07:19:59.226Z,56.46
2022-08-22T07:31:02.946Z,56.42
2022-08-22T07:36:34.613Z,57.44
2022-08-22T07:47:38.130Z,51.63
2022-08-22T07:58:41.812Z,45.49
2022-08-22T08:04:13.818Z,48.72
2022-08-22T08:09:45.596Z,47.18
2022-08-22T08:15:17.086Z,48.14
2022-08-22T08:20:48.804Z,43.84
2022-08-22T08:26:20.726Z,44.35
2022-08-22T08:31:52.636Z,44.37
2022-08-22T08:37:24.491Z,42.74
2022-08-22T08:42:56.502Z,41.81
2022-08-22T08:48:28.571Z,43.95
2022-08-22T08:54:00.498Z,42.86
2022-08-22T08:59:32.474Z,41.74
2022-08-22T09:10:36.182Z,43.25
2022-08-22T09:16:08.177Z,43.15
2022-08-22T09:21:40.370Z,41.58
2022-08-22T09:23:53.441Z,41.63
2022-08-22T09:29:23.204Z,42.65
2022-08-22T09:34:54.854Z,40.99
2022-08-22T09:45:58.483Z,42.13
2022-08-22T09:51:32.014Z,40.81
2022-08-22T10:02:34.537Z,39.64
2022-08-22T10:08:06.447Z,39.88
2022-08-22T10:13:38.394Z,42.61
2022-08-22T10:19:10.416Z,40.42
2022-08-22T10:24:44.141Z,40.27
2022-08-22T10:30:16.366Z,40.63
2022-08-22T10:35:45.876Z,42.61
2022-08-22T10:41:17.354Z,44.46
2022-08-22T10:46:49.509Z,44.30
2022-08-22T10:52:21.207Z,42.72
2022-08-22T11:03:23.549Z,43.96
2022-08-22T11:08:54.794Z,43.93
2022-08-22T11:19:58.545Z,43.07
2022-08-22T11:25:38.465Z,42.55
2022-08-22T11:31:01.859Z,41.23
2022-08-22T11:36:33.646Z,40.40
2022-08-22T11:42:05.812Z,40.31
2022-08-22T11:47:37.527Z,40.26
2022-08-22T11:53:09.390Z,40.53
2022-08-22T11:58:41.037Z,41.20
2022-08-22T12:04:12.933Z,40.49
2022-08-22T12:09:44.689Z,39.84
2022-08-22T12:23:08.330Z,36.14
2022-08-22T12:28:39.973Z,36.75
2022-08-22T12:34:11.696Z,36.55
2022-08-22T12:39:43.713Z,34.98
2022-08-22T12:45:15.385Z,36.05
2022-08-22T12:50:47.402Z,38.96
2022-08-22T13:01:48.846Z,38.69
2022-08-22T13:07:22.797Z,38.90
2022-08-22T13:12:52.904Z,38.35
2022-08-22T13:18:29.783Z,37.83
2022-08-22T13:26:31.796Z,39.46
2022-08-22T13:31:47.795Z,38.50
2022-08-22T13:42:49.460Z,39.48
2022-08-22T13:48:21.359Z,39.90
2022-08-22T13:56:15.494Z,37.78
2022-08-22T14:01:45.774Z,36.85
2022-08-22T14:07:17.469Z,37.61
2022-08-22T14:12:50.936Z,40.54
2022-08-22T14:18:21.267Z,40.86
2022-08-22T14:23:53.105Z,40.92
2022-08-22T14:29:24.974Z,40.72
2022-08-22T14:34:58.888Z,41.27
2022-08-22T14:40:28.699Z,41.69
2022-08-22T14:46:02.197Z,39.84
2022-08-22T14:51:32.405Z,40.94
2022-08-22T14:57:04.634Z,40.19
2022-08-22T15:02:36.658Z,40.28
2022-08-22T15:08:08.849Z,38.75
2022-08-22T15:13:40.703Z,39.23
2022-08-22T15:24:42.769Z,38.79
2022-08-22T15:30:18.806Z,38.69
2022-08-22T15:35:45.516Z,39.07
2022-08-22T15:41:17.507Z,40.40
2022-08-22T15:52:18.870Z,43.13
2022-08-22T15:57:50.940Z,43.80
2022-08-22T16:03:24.364Z,45.32
2022-08-22T16:08:56.315Z,45.29
2022-08-22T16:14:29.661Z,45.60
2022-08-22T16:20:00.407Z,45.60
2022-08-22T16:25:32.134Z,45.54
2022-08-22T16:31:03.583Z,44.27
2022-08-22T16:36:35.811Z,44.07
2022-08-22T16:42:07.416Z,43.85
2022-08-22T16:47:39.437Z,43.76
2022-08-22T16:53:11.089Z,43.68
2022-08-22T16:58:56.958Z,43.49
2022-08-22T17:04:14.970Z,42.61
2022-08-22T17:09:47.247Z,42.43
2022-08-22T17:15:19.403Z,42.25
2022-08-22T17:20:51.058Z,41.78
2022-08-22T17:26:23.218Z,41.71
2022-08-22T17:31:55.338Z,42.83
2022-08-22T17:37:26.924Z,43.80
2022-08-22T17:42:58.816Z,44.12
2022-08-22T17:48:30.656Z,43.78
2022-08-22T17:54:02.440Z,43.99
2022-08-22T17:59:33.830Z,45.38
2022-08-22T18:05:05.301Z,45.70
2022-08-22T18:10:37.185Z,46.72
2022-08-22T18:16:08.649Z,46.50
2022-08-22T18:21:40.556Z,47.76
2022-08-22T18:27:29.686Z,48.38
2022-08-22T18:32:43.986Z,48.62
2022-08-22T18:38:19.768Z,49.47
2022-08-22T18:43:47.719Z,50.97
2022-08-22T18:51:40.784Z,50.74
2022-08-22T18:57:12.556Z,51.04
2022-08-22T19:02:47.055Z,52.76
2022-08-22T19:08:15.622Z,53.44
2022-08-22T19:13:47.139Z,54.45
2022-08-22T19:19:18.889Z,55.18
2022-08-22T19:24:50.162Z,55.25
2022-08-22T19:30:21.640Z,55.92
2022-08-22T19:35:53.617Z,55.26
2022-08-22T19:41:25.693Z,55.05
2022-08-22T19:46:56.859Z,57.03
2022-08-22T19:52:28.236Z,56.51
2022-08-22T19:57:59.483Z,56.82
2022-08-22T20:03:30.877Z,57.03
2022-08-22T20:09:02.473Z,57.27
2022-08-22T20:14:34.290Z,56.73
2022-08-22T20:20:27.943Z,59.47
2022-08-22T20:25:42.730Z,59.01
2022-08-22T20:31:09.643Z,59.58
2022-08-22T20:36:41.079Z,60.63
2022-08-22T20:42:12.550Z,60.19
2022-08-22T20:47:48.923Z,59.55
2022-08-22T20:53:15.898Z,60.48
2022-08-22T20:58:47.233Z,61.99
2022-08-22T21:04:19.008Z,62.22
2022-08-22T21:09:50.509Z,62.00
2022-08-22T21:15:22.558Z,62.47
2022-08-22T21:20:54.312Z,64.00
2022-08-22T21:26:26.343Z,63.26
2022-08-22T21:31:59.214Z,62.52
2022-08-22T21:37:29.828Z,61.87
2022-08-22T21:43:01.716Z,64.06
2022-08-22T21:48:33.757Z,64.38
2022-08-22T21:54:17.687Z,64.02
2022-08-22T21:59:58.737Z,64.37
2022-08-22T22:05:12.400Z,64.11
2022-08-22T22:10:44.015Z,64.79
2022-08-22T22:16:16.262Z,64.90
2022-08-22T22:21:48.573Z,65.94
2022-08-22T22:27:20.549Z,65.90
2022-08-22T22:32:52.494Z,65.79
2022-08-22T22:38:24.371Z,64.83
2022-08-22T22:43:56.388Z,64.65
2022-08-22T22:49:28.197Z,66.20
2022-08-22T23:00:31.803Z,67.16
2022-08-22T23:06:03.566Z,68.94
2022-08-22T23:11:35.487Z,68.36
2022-08-22T23:22:39.009Z,67.29
2022-08-22T23:28:10.820Z,67.72
2022-08-22T23:33:42.494Z,69.07
2022-08-22T23:44:46.874Z,71.28
2022-08-22T23:55:50.310Z,74.26
